createdAt,value
2023-02-25T00:00:13.741Z,30.08
2023-02-25T00:01:13.665Z,27.04
2023-02-25T00:02:13.887Z,21.24
2023-02-25T00:03:12.908Z,21.56
2023-02-25T00:04:12.798Z,17.20
2023-02-25T00:05:14.094Z,28.56
2023-02-25T00:06:13.097Z,17.32
2023-02-25T00:07:13.060Z,11.44
2023-02-25T00:08:13.070Z,19.80
2023-02-25T00:09:13.035Z,23.48
2023-02-25T00:10:13.468Z,13.60
2023-02-25T00:11:13.737Z,11.24
2023-02-25T00:12:13.770Z,13.40
2023-02-25T00:13:18.413Z,22.40
2023-02-25T00:14:13.872Z,28.52
2023-02-25T00:15:17.916Z,27.12
2023-02-25T00:16:13.097Z,28.40
2023-02-25T00:17:13.305Z,20.72
2023-02-25T00:18:13.682Z,21.64
2023-02-25T00:19:13.566Z,17.16
2023-02-25T00:20:13.497Z,11.84
2023-02-25T00:21:13.420Z,13.16
2023-02-25T00:22:13.708Z,8.40
2023-02-25T00:23:13.663Z,19.64
2023-02-25T00:24:16.652Z,28.48
2023-02-25T00:25:13.113Z,17.40
2023-02-25T00:26:13.226Z,19.36
2023-02-25T00:27:13.714Z,19.76
2023-02-25T00:28:13.793Z,19.24
2023-02-25T00:29:13.831Z,28.96
2023-02-25T00:31:14.210Z,30.24
2023-02-25T00:32:13.434Z,21.12
2023-02-25T00:33:13.489Z,34.20
2023-02-25T00:34:13.581Z,27.72
2023-02-25T00:35:13.773Z,17.00
2023-02-25T00:36:13.889Z,17.72
2023-02-25T00:37:14.224Z,36.64
2023-02-25T00:38:16.087Z,18.08
2023-02-25T00:39:13.450Z,23.84
2023-02-25T00:40:13.379Z,18.04
2023-02-25T00:41:13.385Z,24.36
2023-02-25T00:42:13.801Z,12.00
2023-02-25T00:43:13.854Z,10.80
2023-02-25T00:44:13.874Z,20.16
2023-02-25T00:45:13.922Z,19.96
2023-02-25T00:46:12.876Z,22.00
2023-02-25T00:47:12.920Z,17.60
2023-02-25T00:48:13.009Z,12.28
2023-02-25T00:49:21.248Z,8.54
2023-02-25T00:50:13.610Z,16.88
2023-02-25T00:51:13.864Z,16.44
2023-02-25T00:52:14.007Z,14.44
2023-02-25T00:53:13.449Z,23.80
2023-02-25T00:54:13.437Z,23.32
2023-02-25T00:55:13.683Z,21.36
2023-02-25T00:56:13.751Z,21.68
2023-02-25T00:57:13.702Z,20.56
2023-02-25T00:58:13.560Z,12.56
2023-02-25T00:59:13.586Z,14.40
2023-02-25T01:00:13.936Z,26.24
2023-02-25T01:01:12.983Z,24.16
2023-02-25T01:02:13.157Z,22.92
2023-02-25T01:03:13.384Z,19.84
2023-02-25T01:04:13.732Z,13.32
2023-02-25T01:05:14.241Z,20.60
2023-02-25T01:06:13.374Z,18.72
2023-02-25T01:07:13.792Z,9.32
2023-02-25T01:08:13.952Z,15.36
2023-02-25T01:09:13.022Z,12.88
2023-02-25T01:10:12.992Z,16.32
2023-02-25T01:11:13.380Z,9.28
2023-02-25T01:12:13.884Z,19.88
2023-02-25T01:13:13.123Z,30.68
2023-02-25T01:14:13.381Z,13.80
2023-02-25T01:15:13.744Z,18.28
2023-02-25T01:16:13.802Z,25.00
2023-02-25T01:17:13.777Z,18.24
2023-02-25T01:18:13.929Z,19.04
2023-02-25T01:19:13.188Z,31.56
2023-02-25T01:20:13.133Z,27.36
2023-02-25T01:21:13.060Z,18.92
2023-02-25T01:22:12.998Z,20.12
2023-02-25T01:23:12.959Z,16.80
2023-02-25T01:24:12.926Z,16.00
2023-02-25T01:25:12.875Z,12.28
2023-02-25T01:26:14.264Z,23.36
2023-02-25T01:27:13.130Z,17.16
2023-02-25T01:28:13.557Z,26.56
2023-02-25T01:29:13.533Z,20.08
2023-02-25T01:30:13.664Z,9.64
2023-02-25T01:31:13.795Z,21.76
2023-02-25T01:32:14.381Z,20.88
2023-02-25T01:33:13.491Z,13.96
2023-02-25T01:34:13.487Z,26.64
2023-02-25T01:35:13.622Z,26.76
2023-02-25T01:36:13.914Z,17.60
2023-02-25T01:37:13.116Z,18.48
2023-02-25T01:38:13.321Z,21.00
2023-02-25T01:39:13.517Z,19.92
2023-02-25T01:40:13.394Z,15.68
2023-02-25T01:41:13.315Z,20.40
2023-02-25T01:42:13.271Z,20.44
2023-02-25T01:43:13.308Z,25.92
2023-02-25T01:44:13.260Z,31.00
2023-02-25T01:45:13.144Z,49.52
2023-02-25T01:46:13.171Z,26.72
2023-02-25T01:47:13.208Z,29.56
2023-02-25T01:48:13.236Z,15.20
2023-02-25T01:49:13.111Z,16.76
2023-02-25T01:50:13.050Z,14.20
2023-02-25T01:51:13.362Z,28.56
2023-02-25T01:52:13.521Z,35.56
2023-02-25T01:53:13.498Z,23.56
2023-02-25T01:54:13.653Z,20.48
2023-02-25T01:55:13.601Z,37.20
2023-02-25T01:56:13.586Z,25.92
2023-02-25T01:57:13.715Z,23.96
2023-02-25T01:58:13.959Z,34.84
2023-02-25T01:59:12.908Z,35.24
2023-02-25T02:00:13.049Z,26.32
2023-02-25T02:01:13.594Z,26.72
2023-02-25T02:02:13.813Z,22.76
2023-02-25T02:03:13.865Z,24.96
2023-02-25T02:04:12.967Z,27.96
2023-02-25T02:05:13.108Z,15.52
2023-02-25T02:06:13.048Z,23.76
2023-02-25T02:07:13.235Z,36.40
2023-02-25T02:08:13.500Z,25.80
2023-02-25T02:09:13.563Z,29.32
2023-02-25T02:10:13.444Z,16.88
2023-02-25T02:11:13.305Z,22.20
2023-02-25T02:12:13.279Z,31.48
2023-02-25T02:13:13.283Z,15.40
2023-02-25T02:14:13.289Z,18.12
2023-02-25T02:15:13.197Z,27.12
2023-02-25T02:16:13.520Z,25.00
2023-02-25T02:17:13.488Z,13.36
2023-02-25T02:18:13.519Z,22.16
2023-02-25T02:19:13.498Z,23.64
2023-02-25T02:20:13.488Z,17.60
2023-02-25T02:21:13.414Z,19.56
2023-02-25T02:22:13.446Z,20.44
2023-02-25T02:23:13.425Z,16.72
2023-02-25T02:24:14.552Z,24.56
2023-02-25T02:25:13.458Z,22.00
2023-02-25T02:26:13.304Z,23.80
2023-02-25T02:27:13.319Z,16.60
2023-02-25T02:28:13.560Z,28.80
2023-02-25T02:29:13.661Z,9.16
2023-02-25T02:30:13.912Z,18.32
2023-02-25T02:31:13.499Z,16.24
2023-02-25T02:32:13.830Z,11.32
2023-02-25T02:33:14.078Z,14.52
2023-02-25T02:34:13.325Z,12.80
2023-02-25T02:35:13.334Z,17.56
2023-02-25T02:36:13.296Z,24.48
2023-02-25T02:37:13.294Z,26.92
2023-02-25T02:38:13.657Z,14.72
2023-02-25T02:39:13.722Z,22.92
2023-02-25T02:40:13.671Z,12.04
2023-02-25T02:41:13.610Z,18.12
2023-02-25T02:42:13.716Z,21.60
2023-02-25T02:43:13.588Z,16.36
2023-02-25T02:44:14.613Z,13.64
2023-02-25T02:45:13.514Z,29.48
2023-02-25T02:46:13.522Z,27.16
2023-02-25T02:47:13.608Z,14.04
2023-02-25T02:48:13.560Z,12.00
2023-02-25T02:49:13.505Z,16.76
2023-02-25T02:50:18.803Z,13.56
2023-02-25T02:51:13.987Z,4.88
2023-02-25T02:52:12.935Z,11.72
2023-02-25T02:53:12.886Z,11.04
2023-02-25T02:54:12.756Z,8.36
2023-02-25T02:55:13.756Z,14.84
2023-02-25T02:56:14.014Z,12.28
2023-02-25T02:57:13.013Z,11.60
2023-02-25T02:58:13.056Z,15.08
2023-02-25T02:59:13.045Z,7.20
2023-02-25T03:00:13.083Z,5.36
2023-02-25T03:01:13.231Z,9.80
2023-02-25T03:02:13.361Z,14.48
2023-02-25T03:03:13.389Z,25.52
2023-02-25T03:04:13.408Z,14.68
2023-02-25T03:05:13.517Z,23.24
2023-02-25T03:06:13.589Z,11.76
2023-02-25T03:07:13.524Z,9.72
2023-02-25T03:08:13.723Z,11.36
2023-02-25T03:09:13.650Z,5.48
2023-02-25T03:10:13.734Z,11.12
2023-02-25T03:11:13.967Z,18.72
2023-02-25T03:12:13.429Z,13.32
2023-02-25T03:13:13.825Z,12.20
2023-02-25T03:14:13.850Z,4.44
2023-02-25T03:15:13.712Z,6.84
2023-02-25T03:16:13.688Z,9.12
2023-02-25T03:17:13.919Z,9.92
2023-02-25T03:18:13.077Z,8.44
2023-02-25T03:19:13.410Z,16.40
2023-02-25T03:20:13.576Z,10.20
2023-02-25T03:21:13.536Z,10.20
2023-02-25T03:22:13.512Z,10.00
2023-02-25T03:23:13.826Z,9.04
2023-02-25T03:24:14.093Z,12.48
2023-02-25T03:25:13.014Z,10.96
2023-02-25T03:26:13.300Z,8.04
2023-02-25T03:27:13.255Z,10.36
2023-02-25T03:28:13.158Z,8.28
2023-02-25T03:29:13.215Z,5.04
2023-02-25T03:30:13.254Z,10.32
2023-02-25T03:31:13.297Z,7.96
2023-02-25T03:32:13.464Z,15.04
2023-02-25T03:33:13.580Z,7.48
2023-02-25T03:34:13.552Z,4.84
2023-02-25T03:35:13.806Z,8.80
2023-02-25T03:36:13.770Z,11.84
2023-02-25T03:37:13.791Z,10.72
2023-02-25T03:38:13.677Z,16.84
2023-02-25T03:39:13.601Z,6.16
2023-02-25T03:40:13.624Z,24.92
2023-02-25T03:41:13.620Z,20.32
2023-02-25T03:42:13.980Z,16.64
2023-02-25T03:43:13.245Z,18.08
2023-02-25T03:44:13.460Z,21.44
2023-02-25T03:45:13.541Z,18.08
2023-02-25T03:46:13.439Z,13.48
2023-02-25T03:47:13.651Z,13.68
2023-02-25T03:48:13.655Z,12.92
2023-02-25T03:49:13.632Z,14.84
2023-02-25T03:50:13.763Z,10.04
2023-02-25T03:51:14.214Z,18.80
2023-02-25T03:52:13.610Z,24.76
2023-02-25T03:53:13.525Z,9.16
2023-02-25T03:54:13.964Z,17.72
2023-02-25T03:55:13.206Z,19.12
2023-02-25T03:56:13.318Z,17.84
2023-02-25T03:57:13.427Z,13.96
2023-02-25T03:58:13.677Z,17.84
2023-02-25T03:59:13.882Z,8.76
2023-02-25T04:00:13.857Z,7.64
2023-02-25T04:01:16.941Z,11.04
2023-02-25T04:02:13.653Z,13.48
2023-02-25T04:03:13.709Z,12.88
2023-02-25T04:04:13.787Z,11.32
2023-02-25T04:05:13.174Z,12.32
2023-02-25T04:06:13.161Z,8.40
2023-02-25T04:07:13.423Z,10.92
2023-02-25T04:08:13.391Z,7.16
2023-02-25T04:09:13.329Z,10.48
2023-02-25T04:10:13.362Z,9.88
2023-02-25T04:11:13.686Z,8.60
2023-02-25T04:12:13.787Z,5.72
2023-02-25T04:13:13.763Z,8.68
2023-02-25T04:14:14.074Z,17.72
2023-02-25T04:15:13.050Z,5.88
2023-02-25T04:16:13.212Z,10.64
2023-02-25T04:17:13.297Z,12.04
2023-02-25T04:18:13.223Z,19.60
2023-02-25T04:19:13.180Z,17.52
2023-02-25T04:20:13.175Z,19.52
2023-02-25T04:21:13.612Z,13.36
2023-02-25T04:22:13.832Z,8.32
2023-02-25T04:23:13.759Z,12.36
2023-02-25T04:24:14.284Z,29.16
2023-02-25T04:25:13.475Z,14.68
2023-02-25T04:26:13.432Z,18.36
2023-02-25T04:27:13.340Z,24.60
2023-02-25T04:28:13.603Z,16.44
2023-02-25T04:29:13.509Z,23.00
2023-02-25T04:30:14.510Z,14.16
2023-02-25T04:31:13.965Z,19.28
2023-02-25T04:32:13.133Z,23.32
2023-02-25T04:33:13.147Z,11.56
2023-02-25T04:34:13.285Z,19.24
2023-02-25T04:35:13.354Z,16.28
2023-02-25T04:36:13.410Z,8.60
2023-02-25T04:37:13.510Z,7.76
2023-02-25T04:38:13.554Z,17.20
2023-02-25T04:39:13.421Z,11.60
2023-02-25T04:40:13.278Z,11.36
2023-02-25T04:41:18.162Z,18.16
2023-02-25T04:42:13.263Z,15.40
2023-02-25T04:43:13.188Z,16.28
2023-02-25T04:44:13.468Z,20.96
2023-02-25T04:45:13.734Z,10.60
2023-02-25T04:46:14.072Z,19.56
2023-02-25T04:47:12.974Z,10.32
2023-02-25T04:48:12.966Z,12.32
2023-02-25T04:49:12.854Z,11.84
2023-02-25T04:50:13.775Z,14.56
2023-02-25T04:51:13.723Z,10.44
2023-02-25T04:52:13.612Z,18.56
2023-02-25T04:53:13.592Z,13.20
2023-02-25T04:54:13.532Z,21.68
2023-02-25T04:55:13.541Z,12.16
2023-02-25T04:56:13.916Z,23.76
2023-02-25T04:57:12.899Z,21.16
2023-02-25T04:58:12.941Z,26.00
2023-02-25T04:59:12.784Z,22.76
2023-02-25T05:00:13.814Z,10.68
2023-02-25T05:01:13.883Z,10.80
2023-02-25T05:02:14.167Z,18.68
2023-02-25T05:03:13.331Z,27.32
2023-02-25T05:04:13.361Z,14.56
2023-02-25T05:05:13.304Z,22.60
2023-02-25T05:06:13.644Z,14.72
2023-02-25T05:07:13.659Z,17.96
2023-02-25T05:08:13.738Z,18.04
2023-02-25T05:09:13.880Z,22.44
2023-02-25T05:10:13.831Z,19.52
2023-02-25T05:11:13.946Z,23.60
2023-02-25T05:12:12.809Z,26.04
2023-02-25T05:13:13.690Z,16.64
2023-02-25T05:14:13.716Z,18.12
2023-02-25T05:15:13.981Z,23.04
2023-02-25T05:16:13.158Z,17.84
2023-02-25T05:17:13.388Z,17.84
2023-02-25T05:18:13.467Z,9.72
2023-02-25T05:19:13.326Z,6.52
2023-02-25T05:20:13.474Z,8.68
2023-02-25T05:21:13.651Z,6.96
2023-02-25T05:22:13.706Z,24.68
2023-02-25T05:23:14.620Z,29.04
2023-02-25T05:24:13.787Z,22.24
2023-02-25T05:25:14.049Z,18.28
2023-02-25T05:26:12.902Z,16.92
2023-02-25T05:27:13.177Z,13.08
2023-02-25T05:28:13.131Z,17.36
2023-02-25T05:29:13.094Z,10.84
2023-02-25T05:30:13.318Z,5.72
2023-02-25T05:31:13.518Z,11.76
2023-02-25T05:32:13.855Z,15.48
2023-02-25T05:33:13.029Z,16.32
2023-02-25T05:34:13.055Z,15.96
2023-02-25T05:35:13.213Z,10.56
2023-02-25T05:36:13.457Z,10.00
2023-02-25T05:37:13.636Z,15.80
2023-02-25T05:38:13.683Z,18.56
2023-02-25T05:39:13.908Z,19.76
2023-02-25T05:40:13.041Z,32.44
2023-02-25T05:41:12.919Z,38.84
2023-02-25T05:42:13.218Z,32.64
2023-02-25T05:43:13.273Z,10.52
2023-02-25T05:44:13.350Z,14.24
2023-02-25T05:45:13.211Z,21.88
2023-02-25T05:46:13.094Z,15.40
2023-02-25T05:47:13.067Z,13.24
2023-02-25T05:48:13.187Z,18.72
2023-02-25T05:49:13.297Z,14.12
2023-02-25T05:50:13.275Z,15.04
2023-02-25T05:51:13.437Z,20.72
2023-02-25T05:52:13.913Z,17.44
2023-02-25T05:53:12.911Z,26.24
2023-02-25T05:54:12.942Z,10.72
2023-02-25T05:55:13.034Z,25.44
2023-02-25T05:56:13.136Z,7.56
2023-02-25T05:57:13.093Z,20.68
2023-02-25T05:58:13.560Z,24.16
2023-02-25T05:59:13.961Z,14.92
2023-02-25T06:00:12.946Z,14.48
2023-02-25T06:01:13.223Z,16.04
2023-02-25T06:02:13.357Z,28.08
2023-02-25T06:03:13.576Z,23.56
2023-02-25T06:04:13.810Z,15.16
2023-02-25T06:05:12.808Z,21.68
2023-02-25T06:06:14.001Z,36.52
2023-02-25T06:07:13.130Z,30.04
2023-02-25T06:08:13.309Z,17.20
2023-02-25T06:09:13.332Z,21.76
2023-02-25T06:10:13.275Z,29.60
2023-02-25T06:11:13.567Z,30.36
2023-02-25T06:12:13.903Z,34.18
2023-02-25T06:13:12.926Z,23.40
2023-02-25T06:14:13.035Z,21.88
2023-02-25T06:15:14.078Z,33.60
2023-02-25T06:16:13.191Z,25.44
2023-02-25T06:17:13.139Z,25.60
2023-02-25T06:18:13.370Z,22.00
2023-02-25T06:19:13.410Z,18.84
2023-02-25T06:20:13.492Z,16.92
2023-02-25T06:21:13.630Z,26.88
2023-02-25T06:22:13.596Z,26.28
2023-02-25T06:23:13.595Z,13.36
2023-02-25T06:24:13.916Z,20.80
2023-02-25T06:25:13.024Z,20.72
2023-02-25T06:26:13.020Z,15.08
2023-02-25T06:27:12.970Z,36.64
2023-02-25T06:28:12.900Z,33.92
2023-02-25T06:29:13.165Z,28.88
2023-02-25T06:30:13.169Z,32.36
2023-02-25T06:31:13.095Z,19.68
2023-02-25T06:32:13.259Z,25.40
2023-02-25T06:33:13.257Z,23.72
2023-02-25T06:34:13.303Z,26.52
2023-02-25T06:35:13.269Z,16.48
2023-02-25T06:36:13.483Z,23.56
2023-02-25T06:37:14.982Z,20.36
2023-02-25T06:38:13.043Z,19.92
2023-02-25T06:39:13.582Z,28.28
2023-02-25T06:40:13.742Z,23.88
2023-02-25T06:41:14.266Z,29.08
2023-02-25T06:42:13.546Z,26.92
2023-02-25T06:43:13.583Z,22.68
2023-02-25T06:44:15.752Z,23.12
2023-02-25T06:45:13.289Z,20.52
2023-02-25T06:46:13.257Z,21.88
2023-02-25T06:47:13.157Z,17.48
2023-02-25T06:48:13.240Z,11.40
2023-02-25T06:49:13.177Z,26.60
2023-02-25T06:50:13.267Z,23.84
2023-02-25T06:51:13.640Z,39.40
2023-02-25T06:52:14.158Z,24.28
2023-02-25T06:53:13.528Z,29.92
2023-02-25T06:54:13.395Z,24.04
2023-02-25T06:55:15.610Z,22.64
2023-02-25T06:56:13.756Z,13.00
2023-02-25T06:57:13.824Z,12.24
2023-02-25T06:58:15.635Z,22.60
2023-02-25T06:59:14.102Z,24.96
2023-02-25T07:00:13.118Z,29.36
2023-02-25T07:01:13.236Z,14.52
2023-02-25T07:02:13.383Z,17.96
2023-02-25T07:03:13.648Z,20.08
2023-02-25T07:04:13.845Z,28.44
2023-02-25T07:05:13.847Z,25.36
2023-02-25T07:06:13.809Z,18.92
2023-02-25T07:07:13.832Z,17.28
2023-02-25T07:08:13.813Z,13.72
2023-02-25T07:09:13.878Z,16.84
2023-02-25T07:10:12.875Z,9.72
2023-02-25T07:11:14.908Z,14.44
2023-02-25T07:12:13.213Z,15.52
2023-02-25T07:13:13.305Z,16.64
2023-02-25T07:14:13.664Z,26.28
2023-02-25T07:15:13.670Z,19.32
2023-02-25T07:16:13.795Z,23.12
2023-02-25T07:17:13.874Z,27.08
2023-02-25T07:18:13.158Z,38.68
2023-02-25T07:19:13.140Z,31.52
2023-02-25T07:20:13.459Z,23.20
2023-02-25T07:21:13.318Z,35.68
2023-02-25T07:22:13.344Z,24.20
2023-02-25T07:23:23.434Z,21.24
2023-02-25T07:24:13.369Z,19.24
2023-02-25T07:25:13.616Z,22.32
2023-02-25T07:26:13.907Z,15.04
2023-02-25T07:27:12.842Z,14.64
2023-02-25T07:28:14.084Z,13.16
2023-02-25T07:29:13.133Z,25.56
2023-02-25T07:30:18.466Z,13.56
2023-02-25T07:31:13.445Z,8.68
2023-02-25T07:32:13.875Z,20.04
2023-02-25T07:33:13.255Z,12.36
2023-02-25T07:34:13.230Z,21.28
2023-02-25T07:35:13.198Z,19.08
2023-02-25T07:36:13.119Z,21.04
2023-02-25T07:37:13.497Z,25.00
2023-02-25T07:38:13.412Z,18.84
2023-02-25T07:39:13.516Z,23.32
2023-02-25T07:40:13.523Z,18.36
2023-02-25T07:41:13.703Z,25.52
2023-02-25T07:42:13.851Z,23.84
2023-02-25T07:43:13.795Z,18.28
2023-02-25T07:44:13.985Z,20.48
2023-02-25T07:45:13.392Z,12.12
2023-02-25T07:46:13.589Z,9.48
2023-02-25T07:47:13.634Z,9.68
2023-02-25T07:48:13.582Z,16.60
2023-02-25T07:49:14.112Z,17.92
2023-02-25T07:50:13.261Z,17.68
2023-02-25T07:51:18.545Z,16.64
2023-02-25T07:52:13.453Z,28.76
2023-02-25T07:53:13.422Z,18.96
2023-02-25T07:54:14.287Z,29.40
2023-02-25T07:55:13.785Z,17.28
2023-02-25T07:56:14.052Z,10.80
2023-02-25T07:57:12.997Z,16.56
2023-02-25T07:58:12.968Z,7.08
2023-02-25T07:59:14.019Z,16.84
2023-02-25T08:00:13.123Z,8.12
2023-02-25T08:01:13.160Z,12.76
2023-02-25T08:02:13.082Z,10.80
2023-02-25T08:03:13.237Z,8.12
2023-02-25T08:04:13.688Z,11.32
2023-02-25T08:05:13.837Z,19.80
2023-02-25T08:06:13.904Z,11.08
2023-02-25T08:07:12.861Z,10.16
2023-02-25T08:08:14.284Z,15.16
2023-02-25T08:09:13.384Z,8.12
2023-02-25T08:10:13.390Z,15.08
2023-02-25T08:11:14.011Z,13.72
2023-02-25T08:12:13.333Z,18.88
2023-02-25T08:13:13.715Z,12.08
2023-02-25T08:14:13.931Z,11.32
2023-02-25T08:15:13.333Z,16.52
2023-02-25T08:16:13.490Z,15.92
2023-02-25T08:17:13.816Z,6.08
2023-02-25T08:18:13.799Z,10.16
2023-02-25T08:19:13.758Z,16.08
2023-02-25T08:20:13.791Z,16.48
2023-02-25T08:21:13.972Z,16.48
2023-02-25T08:22:13.641Z,13.28
2023-02-25T08:23:13.531Z,14.92
2023-02-25T08:24:13.785Z,16.04
2023-02-25T08:25:13.775Z,12.60
2023-02-25T08:26:13.840Z,12.48
2023-02-25T08:27:13.987Z,22.08
2023-02-25T08:28:12.952Z,9.76
2023-02-25T08:29:12.936Z,13.20
2023-02-25T08:30:12.732Z,16.20
2023-02-25T08:31:49.857Z,33.84
2023-02-25T08:32:13.160Z,19.92
2023-02-25T08:33:13.351Z,9.16
2023-02-25T08:34:14.433Z,14.64
2023-02-25T08:35:13.489Z,16.72
2023-02-25T08:36:13.397Z,10.56
2023-02-25T08:37:13.744Z,12.20
2023-02-25T08:38:13.843Z,11.12
2023-02-25T08:39:14.003Z,31.48
2023-02-25T08:40:13.008Z,15.28
2023-02-25T08:41:12.984Z,3.96
2023-02-25T08:42:13.034Z,11.08
2023-02-25T08:43:13.107Z,13.24
2023-02-25T08:44:13.224Z,12.36
2023-02-25T08:45:13.293Z,10.00
2023-02-25T08:46:13.865Z,8.92
2023-02-25T08:47:13.953Z,8.44
2023-02-25T08:48:12.879Z,23.32
2023-02-25T08:49:14.478Z,14.12
2023-02-25T08:50:13.610Z,27.12
2023-02-25T08:51:13.575Z,24.16
2023-02-25T08:52:31.482Z,27.84
2023-02-25T08:53:13.747Z,18.66
2023-02-25T08:54:14.591Z,17.88
2023-02-25T08:56:19.587Z,20.96
2023-02-25T08:57:13.716Z,13.28
2023-02-25T08:58:18.942Z,9.00
2023-02-25T08:59:12.906Z,10.48
2023-02-25T09:01:13.527Z,7.76
2023-02-25T09:02:13.574Z,8.80
2023-02-25T09:03:13.550Z,7.48
2023-02-25T09:04:13.538Z,5.08
2023-02-25T09:05:13.736Z,1.92
2023-02-25T09:06:13.856Z,14.06
2023-02-25T09:07:13.848Z,21.56
2023-02-25T09:08:14.277Z,16.64
2023-02-25T09:09:18.490Z,21.44
2023-02-25T09:10:13.451Z,21.96
2023-02-25T09:11:13.350Z,17.36
2023-02-25T09:12:13.317Z,10.60
2023-02-25T09:13:13.817Z,10.32
2023-02-25T09:14:13.780Z,11.48
2023-02-25T09:15:14.244Z,15.28
2023-02-25T09:16:13.474Z,17.48
2023-02-25T09:17:13.631Z,22.96
2023-02-25T09:18:13.718Z,14.52
2023-02-25T09:19:13.676Z,15.92
2023-02-25T09:22:13.653Z,9.16
2023-02-25T09:23:14.168Z,14.44
2023-02-25T09:24:18.835Z,20.08
2023-02-25T09:25:13.852Z,19.92
2023-02-25T09:26:18.809Z,10.80
2023-02-25T09:28:14.691Z,25.08
2023-02-25T09:28:18.988Z,24.08
2023-02-25T09:29:13.408Z,24.08
2023-02-25T09:30:13.462Z,10.80
2023-02-25T09:31:13.884Z,1.56
2023-02-25T09:32:13.236Z,6.53
2023-02-25T09:33:14.557Z,4.56
2023-02-25T09:34:13.939Z,9.84
2023-02-25T09:35:12.817Z,1.56
2023-02-25T09:36:36.129Z,3.60
2023-02-25T09:37:16.216Z,10.32
2023-02-25T09:38:16.456Z,12.48
2023-02-25T09:41:13.541Z,16.44
2023-02-25T09:42:13.659Z,16.20
2023-02-25T09:43:13.812Z,16.56
2023-02-25T09:44:13.800Z,15.36
2023-02-25T09:45:13.969Z,18.28
2023-02-25T09:46:13.029Z,7.24
2023-02-25T09:47:13.070Z,15.96
2023-02-25T09:48:26.108Z,9.60
2023-02-25T09:49:14.980Z,8.16
2023-02-25T09:50:12.999Z,8.52
2023-02-25T09:52:13.269Z,3.48
2023-02-25T09:53:13.238Z,13.96
2023-02-25T09:54:13.366Z,11.20
2023-02-25T09:55:13.747Z,7.60
2023-02-25T09:56:13.907Z,1.72
2023-02-25T09:57:13.416Z,15.84
2023-02-25T09:58:43.602Z,20.32
2023-02-25T09:59:13.327Z,10.56
2023-02-25T10:00:13.478Z,20.08
2023-02-25T10:01:13.551Z,11.72
2023-02-25T10:02:13.775Z,9.48
2023-02-25T10:03:14.138Z,6.60
2023-02-25T10:04:13.309Z,9.96
2023-02-25T10:05:13.349Z,15.16
2023-02-25T10:06:13.473Z,11.72
2023-02-25T10:07:17.606Z,8.56
2023-02-25T10:08:14.067Z,12.64
2023-02-25T10:10:13.666Z,7.98
2023-02-25T10:11:13.731Z,7.16
2023-02-25T10:12:20.266Z,11.88
2023-02-25T10:13:13.388Z,17.20
2023-02-25T10:14:13.494Z,16.08
2023-02-25T10:15:18.494Z,11.72
2023-02-25T10:16:13.764Z,23.84
2023-02-25T10:17:19.425Z,16.36
2023-02-25T10:18:13.636Z,18.72
2023-02-25T10:19:13.891Z,35.08
2023-02-25T10:20:13.276Z,43.04
2023-02-25T10:21:13.587Z,80.04
2023-02-25T10:22:14.205Z,43.48
2023-02-25T10:23:13.364Z,24.24
2023-02-25T10:24:13.943Z,31.08
2023-02-25T10:25:13.577Z,25.40
2023-02-25T10:27:14.276Z,24.48
2023-02-25T10:28:13.434Z,12.20
2023-02-25T10:29:13.695Z,12.08
2023-02-25T10:30:13.733Z,19.56
2023-02-25T10:31:14.643Z,12.92
2023-02-25T10:32:14.291Z,9.40
2023-02-25T10:33:13.590Z,23.40
2023-02-25T10:34:13.802Z,4.24
2023-02-25T10:35:14.008Z,11.88
2023-02-25T10:36:13.061Z,10.20
2023-02-25T10:37:13.325Z,5.24
2023-02-25T10:38:13.875Z,3.04
2023-02-25T10:39:12.983Z,3.44
2023-02-25T10:40:14.010Z,1.72
2023-02-25T10:41:13.242Z,5.20
2023-02-25T10:42:18.371Z,4.04
2023-02-25T10:43:13.729Z,3.88
2023-02-25T10:44:14.446Z,2.80
2023-02-25T10:45:15.012Z,5.28
2023-02-25T10:46:13.608Z,4.04
2023-02-25T10:47:14.823Z,3.04
2023-02-25T10:48:14.034Z,2.72
2023-02-25T10:49:16.283Z,2.12
2023-02-25T10:52:14.673Z,3.94
2023-02-25T10:53:13.842Z,6.48
2023-02-25T10:54:14.337Z,6.00
2023-02-25T10:55:13.532Z,2.16
2023-02-25T10:56:14.886Z,4.24
2023-02-25T10:57:13.212Z,7.32
2023-02-25T10:58:13.807Z,7.60
2023-02-25T10:59:13.974Z,12.20
2023-02-25T11:00:13.336Z,6.12
2023-02-25T11:01:14.163Z,11.52
2023-02-25T11:02:13.464Z,19.96
2023-02-25T11:03:13.726Z,22.80
2023-02-25T11:04:14.149Z,14.96
2023-02-25T11:05:13.403Z,10.44
2023-02-25T11:06:13.774Z,19.24
2023-02-25T11:07:13.819Z,26.56
2023-02-25T11:08:13.859Z,34.92
2023-02-25T11:09:13.798Z,15.72
2023-02-25T11:10:14.161Z,23.96
2023-02-25T11:11:13.230Z,31.12
2023-02-25T11:12:13.185Z,30.06
2023-02-25T11:13:13.944Z,22.56
2023-02-25T11:14:13.414Z,10.80
2023-02-25T11:15:14.229Z,9.12
2023-02-25T11:16:18.528Z,37.04
2023-02-25T11:17:14.115Z,29.16
2023-02-25T11:18:13.066Z,17.56
2023-02-25T11:19:13.275Z,14.68
2023-02-25T11:20:13.264Z,22.44
2023-02-25T11:21:14.629Z,41.04
2023-02-25T11:23:13.997Z,31.40
2023-02-25T11:24:13.122Z,39.32
2023-02-25T11:25:13.009Z,44.16
2023-02-25T11:26:12.953Z,47.60
2023-02-25T11:27:13.064Z,28.80
2023-02-25T11:28:13.120Z,45.24
2023-02-25T11:29:13.078Z,41.88
2023-02-25T11:30:13.190Z,40.80
2023-02-25T11:31:13.175Z,43.40
2023-02-25T11:33:14.492Z,50.40
2023-02-25T11:34:13.596Z,34.92
2023-02-25T11:36:14.172Z,21.16
2023-02-25T11:37:13.601Z,40.56
2023-02-25T11:38:13.632Z,48.64
2023-02-25T11:39:13.675Z,66.64
2023-02-25T11:40:13.706Z,63.40
2023-02-25T11:41:13.788Z,46.76
2023-02-25T11:42:36.839Z,30.00
2023-02-25T11:43:12.962Z,58.80
2023-02-25T11:44:13.000Z,59.56
2023-02-25T11:45:13.137Z,43.52
2023-02-25T11:46:28.368Z,23.22
2023-02-25T11:48:14.061Z,45.66
2023-02-25T11:49:13.141Z,36.56
2023-02-25T11:50:13.060Z,45.40
2023-02-25T11:51:13.100Z,42.24
2023-02-25T11:52:13.054Z,54.56
2023-02-25T11:53:13.131Z,67.56
2023-02-25T11:54:13.171Z,63.24
2023-02-25T11:55:13.080Z,67.24
2023-02-25T11:56:13.317Z,50.00
2023-02-25T11:57:13.408Z,54.44
2023-02-25T11:58:13.514Z,33.84
2023-02-25T11:59:13.537Z,26.08
2023-02-25T12:00:14.429Z,35.48
2023-02-25T12:01:13.621Z,32.92
2023-02-25T12:02:13.444Z,41.72
2023-02-25T12:03:13.726Z,24.08
2023-02-25T12:04:13.791Z,16.00
2023-02-25T12:05:13.669Z,39.68
2023-02-25T12:06:14.058Z,61.20
2023-02-25T12:07:12.888Z,36.48
2023-02-25T12:08:41.539Z,7.44
2023-02-25T12:09:13.582Z,16.96
2023-02-25T12:10:13.815Z,17.96
2023-02-25T12:11:13.868Z,29.84
2023-02-25T12:12:13.991Z,20.08
2023-02-25T12:13:13.118Z,66.76
2023-02-25T12:15:18.315Z,19.68
2023-02-25T12:16:13.272Z,48.08
2023-02-25T12:17:50.311Z,56.88
2023-02-25T12:18:13.559Z,48.24
2023-02-25T12:19:13.850Z,54.84
2023-02-25T12:20:13.866Z,77.56
2023-02-25T12:21:13.891Z,88.28
2023-02-25T12:22:13.623Z,64.04
2023-02-25T12:23:13.889Z,18.24
2023-02-25T12:24:13.122Z,30.44
2023-02-25T12:25:13.492Z,23.48
2023-02-25T12:26:13.889Z,39.28
2023-02-25T12:27:13.258Z,25.96
2023-02-25T12:28:13.507Z,35.00
2023-02-25T12:29:13.696Z,33.48
2023-02-25T12:30:18.777Z,46.96
2023-02-25T12:31:14.002Z,31.24
2023-02-25T12:32:13.478Z,22.16
2023-02-25T12:33:13.857Z,10.96
2023-02-25T12:34:14.347Z,9.40
2023-02-25T12:35:13.637Z,27.80
2023-02-25T12:36:14.118Z,19.52
2023-02-25T12:37:13.343Z,20.96
2023-02-25T12:38:13.376Z,33.20
2023-02-25T12:39:13.406Z,71.16
2023-02-25T12:40:14.264Z,36.40
2023-02-25T12:43:13.695Z,29.28
2023-02-25T12:44:13.681Z,46.56
2023-02-25T12:45:13.567Z,30.40
2023-02-25T12:46:13.634Z,28.32
2023-02-25T12:47:13.971Z,25.64
2023-02-25T12:48:13.207Z,30.12
2023-02-25T12:49:13.231Z,16.60
2023-02-25T12:50:13.299Z,41.24
2023-02-25T12:51:13.316Z,39.48
2023-02-25T12:52:13.233Z,32.24
2023-02-25T12:53:13.447Z,39.84
2023-02-25T12:54:13.730Z,46.68
2023-02-25T12:55:13.753Z,50.28
2023-02-25T12:56:13.773Z,42.96
2023-02-25T12:57:40.957Z,30.24
2023-02-25T12:58:15.104Z,29.57
2023-02-25T12:59:13.281Z,28.16
2023-02-25T13:00:13.243Z,42.60
2023-02-25T13:01:13.390Z,44.76
2023-02-25T13:02:13.352Z,41.44
2023-02-25T13:03:13.531Z,32.76
2023-02-25T13:04:13.439Z,22.96
2023-02-25T13:05:14.544Z,17.68
2023-02-25T13:06:13.545Z,45.80
2023-02-25T13:07:13.616Z,49.12
2023-02-25T13:08:13.549Z,46.64
2023-02-25T13:09:18.824Z,37.08
2023-02-25T13:10:14.007Z,56.40
2023-02-25T13:11:13.041Z,38.28
2023-02-25T13:12:13.114Z,25.96
2023-02-25T13:13:13.078Z,29.08
2023-02-25T13:14:13.180Z,43.88
2023-02-25T13:15:13.420Z,30.80